Time;durP1;ratioP1;P1;durP2;ratioP2;P2;SDS_P1;SDS_P2;PMS_P1;PMS_P2;Temp;Humidity;BMP_temperature;BMP_pressure;BME280_temperature;BME280_humidity;BME280_pressure;Samples;Min_cycle;Max_cycle;Signal;HPM_P1;HPM_P2
2022/09/09 00:01:05;;;;;;;6.15;5.53;;;;;;;;;;6245474;23;20063;-68
2022/09/09 00:03:38;;;;;;;6.45;5.60;;;;;;;;;;6245908;23;20438;-68
2022/09/09 00:06:13;;;;;;;7.72;5.50;;;;;;;;;;6218323;23;20024;-68
2022/09/09 00:08:42;;;;;;;6.30;5.20;;;;;;;;;;6245445;23;20025;-68
2022/09/09 00:11:13;;;;;;;9.90;5.00;;;;;;;;;;6245393;23;20012;-68
2022/09/09 00:13:47;;;;;;;6.40;5.57;;;;;;;;;;6245673;23;20023;-68
2022/09/09 00:16:18;;;;;;;9.05;5.28;;;;;;;;;;6244815;23;20026;-68
2022/09/09 00:18:58;;;;;;;9.27;5.10;;;;;;;;;;6245374;23;20615;-67
2022/09/09 00:21:46;;;;;;;8.52;5.95;;;;;;;;;;6218980;23;20019;-67
2022/09/09 00:24:32;;;;;;;10.07;5.65;;;;;;;;;;6245189;23;20012;-67
2022/09/09 00:27:03;;;;;;;6.97;5.30;;;;;;;;;;6245371;23;20016;-67
2022/09/09 00:29:33;;;;;;;8.25;5.30;;;;;;;;;;6245277;23;20088;-68
2022/09/09 00:32:05;;;;;;;6.65;5.78;;;;;;;;;;6218399;23;20016;-67
2022/09/09 00:34:33;;;;;;;7.60;6.18;;;;;;;;;;6218176;23;20027;-68
2022/09/09 00:37:02;;;;;;;7.50;5.80;;;;;;;;;;6218415;23;20055;-68
2022/09/09 00:39:36;;;;;;;9.85;6.13;;;;;;;;;;6218469;23;20020;-68
2022/09/09 00:42:03;;;;;;;7.15;6.45;;;;;;;;;;6218440;23;20020;-66
2022/09/09 00:44:35;;;;;;;10.45;6.25;;;;;;;;;;6218434;23;20134;-68
2022/09/09 00:47:09;;;;;;;9.02;5.97;;;;;;;;;;6218371;23;20392;-67
2022/09/09 00:49:46;;;;;;;9.83;7.00;;;;;;;;;;6218420;23;20459;-67
2022/09/09 00:52:13;;;;;;;8.05;5.65;;;;;;;;;;6245043;23;20020;-67
2022/09/09 00:54:56;;;;;;;8.85;5.63;;;;;;;;;;6218103;23;20608;-68
2022/09/09 00:57:31;;;;;;;6.50;5.75;;;;;;;;;;6218458;23;20521;-67
2022/09/09 01:00:04;;;;;;;8.13;5.65;;;;;;;;;;6218362;23;20016;-68
2022/09/09 01:02:37;;;;;;;8.75;5.97;;;;;;;;;;6218355;23;20024;-68
2022/09/09 01:05:13;;;;;;;9.10;5.75;;;;;;;;;;6218050;23;20024;-68
2022/09/09 01:07:45;;;;;;;8.35;5.72;;;;;;;;;;6218435;23;20016;-67
2022/09/09 01:10:19;;;;;;;7.32;6.30;;;;;;;;;;6218227;23;20027;-68
2022/09/09 01:12:47;;;;;;;8.23;5.93;;;;;;;;;;6218098;23;20016;-67
2022/09/09 01:15:22;;;;;;;9.00;5.70;;;;;;;;;;6218177;23;20048;-68
2022/09/09 01:17:55;;;;;;;8.80;5.65;;;;;;;;;;6218438;23;20024;-68
2022/09/09 01:20:32;;;;;;;10.30;5.85;;;;;;;;;;6218351;23;20572;-68
2022/09/09 01:23:05;;;;;;;9.13;7.45;;;;;;;;;;6218275;23;20020;-68
2022/09/09 01:25:44;;;;;;;15.73;11.50;;;;;;;;;;6218171;23;20016;-69
2022/09/09 01:28:27;;;;;;;11.90;6.57;;;;;;;;;;6219873;23;20026;-69
2022/09/09 01:31:01;;;;;;;8.60;6.28;;;;;;;;;;6220122;23;20012;-69
2022/09/09 01:33:35;;;;;;;8.70;6.82;;;;;;;;;;6219996;23;20016;-68
2022/09/09 01:36:12;;;;;;;11.45;6.50;;;;;;;;;;6219981;23;20358;-68
2022/09/09 01:38:47;;;;;;;35.80;24.30;;;;;;;;;;6219929;23;20012;-69
2022/09/09 01:41:15;;;;;;;42.55;30.33;;;;;;;;;;6219808;23;20328;-69
2022/09/09 01:43:49;;;;;;;31.67;24.67;;;;;;;;;;6219574;23;20019;-69
2022/09/09 01:46:17;;;;;;;15.07;12.18;;;;;;;;;;6219967;23;20024;-68
2022/09/09 01:48:45;;;;;;;33.53;25.10;;;;;;;;;;6219640;23;20023;-69
2022/09/09 01:51:14;;;;;;;25.70;20.40;;;;;;;;;;6219832;23;20399;-68
2022/09/09 01:53:42;;;;;;;12.80;8.63;;;;;;;;;;6219850;23;20386;-69
2022/09/09 01:56:30;;;;;;;14.45;11.75;;;;;;;;;;6219780;23;20016;-68
2022/09/09 01:59:03;;;;;;;7.88;6.65;;;;;;;;;;6219900;23;20044;-68
2022/09/09 02:01:43;;;;;;;10.25;7.47;;;;;;;;;;6219781;23;20091;-69
2022/09/09 02:04:19;;;;;;;14.93;11.85;;;;;;;;;;6219571;23;20039;-69
2022/09/09 02:06:47;;;;;;;7.67;6.57;;;;;;;;;;6219828;23;20024;-68
2022/09/09 02:09:23;;;;;;;17.92;14.55;;;;;;;;;;6219511;23;20336;-69
2022/09/09 02:11:56;;;;;;;9.75;7.07;;;;;;;;;;6219792;23;20020;-68
2022/09/09 02:14:39;;;;;;;10.43;7.35;;;;;;;;;;6219504;23;20066;-68
2022/09/09 02:17:10;;;;;;;8.35;6.55;;;;;;;;;;6219523;23;20106;-68
2022/09/09 02:20:03;;;;;;;9.52;6.75;;;;;;;;;;6219678;23;20020;-69
2022/09/09 02:22:41;;;;;;;7.25;6.40;;;;;;;;;;6219613;23;20351;-68
2022/09/09 02:25:11;;;;;;;7.43;6.65;;;;;;;;;;6219768;23;20016;-69
2022/09/09 02:27:40;;;;;;;9.85;7.10;;;;;;;;;;6219673;23;20027;-68
2022/09/09 02:30:09;;;;;;;8.98;6.30;;;;;;;;;;6219601;23;20016;-68
2022/09/09 02:32:46;;;;;;;8.50;6.00;;;;;;;;;;6219597;23;20028;-68
2022/09/09 02:35:18;;;;;;;9.70;6.47;;;;;;;;;;6219335;23;20107;-68
2022/09/09 02:37:46;;;;;;;8.95;6.22;;;;;;;;;;6219471;23;20347;-69
2022/09/09 02:40:18;;;;;;;8.45;6.07;;;;;;;;;;6219007;23;20024;-68
2022/09/09 02:42:50;;;;;;;8.30;6.20;;;;;;;;;;6195479;23;20086;-68
2022/09/09 02:45:24;;;;;;;8.00;6.43;;;;;;;;;;6219359;23;20020;-68
2022/09/09 02:48:11;;;;;;;8.85;6.10;;;;;;;;;;6219395;23;20031;-68
2022/09/09 02:50:49;;;;;;;11.50;6.47;;;;;;;;;;6219429;23;20020;-68
2022/09/09 02:53:20;;;;;;;8.57;6.15;;;;;;;;;;6219348;23;20020;-68
2022/09/09 02:55:50;;;;;;;9.82;5.95;;;;;;;;;;6219092;23;20024;-68
2022/09/09 02:58:21;;;;;;;8.02;6.40;;;;;;;;;;6246143;23;20513;-68
2022/09/09 03:01:00;;;;;;;10.18;6.95;;;;;;;;;;6219249;23;20023;-68
2022/09/09 03:03:30;;;;;;;13.05;7.05;;;;;;;;;;6218996;23;20391;-68
2022/09/09 03:05:59;;;;;;;8.23;6.88;;;;;;;;;;6219122;23;20350;-68
2022/09/09 03:08:28;;;;;;;9.93;6.90;;;;;;;;;;6219187;23;20359;-68
2022/09/09 03:11:00;;;;;;;7.50;5.43;;;;;;;;;;6219196;23;20074;-68
2022/09/09 03:13:31;;;;;;;10.25;5.78;;;;;;;;;;6194925;23;20016;-68
2022/09/09 03:15:59;;;;;;;7.95;5.50;;;;;;;;;;6218734;23;20320;-68
2022/09/09 03:18:29;;;;;;;5.80;5.18;;;;;;;;;;6218704;23;20103;-68
2022/09/09 03:20:59;;;;;;;7.10;5.55;;;;;;;;;;6218812;23;20024;-68
2022/09/09 03:23:29;;;;;;;8.18;5.88;;;;;;;;;;6219094;23;20067;-68
2022/09/09 03:25:59;;;;;;;8.45;5.88;;;;;;;;;;6218902;23;20103;-68
2022/09/09 03:28:36;;;;;;;9.32;7.15;;;;;;;;;;6219086;23;20553;-68
2022/09/09 03:31:05;;;;;;;9.18;6.00;;;;;;;;;;6218875;23;20016;-69
2022/09/09 03:33:39;;;;;;;7.60;6.20;;;;;;;;;;6219020;23;20020;-69
2022/09/09 03:36:08;;;;;;;8.30;5.93;;;;;;;;;;6218796;23;20024;-68
2022/09/09 03:38:36;;;;;;;9.70;5.97;;;;;;;;;;6218899;23;20020;-68
2022/09/09 03:41:06;;;;;;;9.88;6.70;;;;;;;;;;6218837;23;20103;-68
2022/09/09 03:43:34;;;;;;;14.30;9.60;;;;;;;;;;6218829;23;20106;-69
2022/09/09 03:46:01;;;;;;;8.32;5.40;;;;;;;;;;6218745;23;20342;-69
2022/09/09 03:48:29;;;;;;;8.57;5.82;;;;;;;;;;6218485;23;20458;-68
2022/09/09 03:51:00;;;;;;;6.63;5.68;;;;;;;;;;6245512;23;20020;-68
2022/09/09 03:53:30;;;;;;;9.50;5.88;;;;;;;;;;6218979;23;20023;-68
2022/09/09 03:55:59;;;;;;;8.02;5.63;;;;;;;;;;6218404;23;20051;-68
2022/09/09 03:58:29;;;;;;;9.95;6.05;;;;;;;;;;6218689;23;20020;-68
2022/09/09 04:01:06;;;;;;;8.38;6.93;;;;;;;;;;6218646;23;20047;-68
2022/09/09 04:03:34;;;;;;;8.55;5.90;;;;;;;;;;6218514;23;20082;-68
2022/09/09 04:06:03;;;;;;;9.70;5.45;;;;;;;;;;6245236;23;20066;-68
2022/09/09 04:08:32;;;;;;;8.38;5.93;;;;;;;;;;6218603;23;20024;-68
2022/09/09 04:11:05;;;;;;;6.35;5.57;;;;;;;;;;6218630;23;20351;-68
2022/09/09 04:13:34;;;;;;;11.48;7.15;;;;;;;;;;6218574;23;20401;-68
2022/09/09 04:16:03;;;;;;;20.40;15.25;;;;;;;;;;6245111;23;20387;-67
2022/09/09 04:18:34;;;;;;;12.35;9.38;;;;;;;;;;6218466;23;20459;-68
2022/09/09 04:21:04;;;;;;;14.43;9.02;;;;;;;;;;6218570;23;20023;-67
2022/09/09 04:23:34;;;;;;;9.48;6.97;;;;;;;;;;6218421;23;20039;-68
2022/09/09 04:26:02;;;;;;;7.88;5.85;;;;;;;;;;6218419;23;20021;-68
2022/09/09 04:28:31;;;;;;;8.90;5.68;;;;;;;;;;6217783;23;20024;-68
2022/09/09 04:31:09;;;;;;;10.88;6.80;;;;;;;;;;6217307;23;20447;-68
2022/09/09 04:33:40;;;;;;;12.93;9.00;;;;;;;;;;6215982;23;20070;-68
2022/09/09 04:36:09;;;;;;;14.27;10.00;;;;;;;;;;6217193;23;20111;-68
2022/09/09 04:38:37;;;;;;;6.90;5.30;;;;;;;;;;6218152;23;20016;-68
2022/09/09 04:41:05;;;;;;;8.23;5.65;;;;;;;;;;6218255;23;20533;-68
2022/09/09 04:43:34;;;;;;;15.18;10.32;;;;;;;;;;6218337;23;20093;-67
2022/09/09 04:46:04;;;;;;;8.15;6.30;;;;;;;;;;6218219;23;20020;-67
2022/09/09 04:48:32;;;;;;;15.23;9.60;;;;;;;;;;6216979;23;20434;-66
2022/09/09 04:51:05;;;;;;;9.27;5.30;;;;;;;;;;6217686;23;20024;-69
2022/09/09 04:53:34;;;;;;;10.63;6.88;;;;;;;;;;6217681;23;20523;-68
2022/09/09 04:56:02;;;;;;;13.13;5.00;;;;;;;;;;6217877;23;20567;-68
2022/09/09 04:58:32;;;;;;;7.75;5.07;;;;;;;;;;6218790;23;20070;-69
2022/09/09 05:01:04;;;;;;;10.98;6.40;;;;;;;;;;6218015;23;20048;-70
2022/09/09 05:03:32;;;;;;;6.03;5.40;;;;;;;;;;6220213;23;20020;-69
2022/09/09 05:06:19;;;;;;;9.38;5.10;;;;;;;;;;6220224;23;20013;-70
2022/09/09 05:08:49;;;;;;;5.50;4.90;;;;;;;;;;6218851;23;20078;-69
2022/09/09 05:11:23;;;;;;;7.35;5.05;;;;;;;;;;6219344;23;20099;-68
2022/09/09 05:13:53;;;;;;;7.45;5.05;;;;;;;;;;6219676;23;20407;-69
2022/09/09 05:16:22;;;;;;;10.63;5.60;;;;;;;;;;6217763;23;20020;-68
2022/09/09 05:18:51;;;;;;;8.57;4.70;;;;;;;;;;6219160;23;20224;-69
2022/09/09 05:21:21;;;;;;;5.57;4.22;;;;;;;;;;6220177;23;20256;-70
2022/09/09 05:23:48;;;;;;;6.60;4.43;;;;;;;;;;6220119;23;20027;-70
2022/09/09 05:26:17;;;;;;;7.05;4.35;;;;;;;;;;6220034;23;20070;-70
2022/09/09 05:28:47;;;;;;;7.07;4.78;;;;;;;;;;6220007;23;20017;-70
2022/09/09 05:31:16;;;;;;;6.45;4.10;;;;;;;;;;6220284;23;20024;-70
2022/09/09 05:33:47;;;;;;;7.00;4.05;;;;;;;;;;6220117;23;20426;-69
2022/09/09 05:36:16;;;;;;;6.13;3.95;;;;;;;;;;6220081;23;20020;-70
2022/09/09 05:38:45;;;;;;;7.70;4.43;;;;;;;;;;6246937;23;20100;-70
2022/09/09 05:41:17;;;;;;;9.00;5.70;;;;;;;;;;6220133;23;20020;-70
2022/09/09 05:43:47;;;;;;;5.75;3.28;;;;;;;;;;6195804;23;20012;-71
2022/09/09 05:46:16;;;;;;;6.93;3.80;;;;;;;;;;6220152;23;20095;-70
2022/09/09 05:48:46;;;;;;;6.57;3.75;;;;;;;;;;6246893;23;20024;-70
2022/09/09 05:51:15;;;;;;;8.45;4.30;;;;;;;;;;6219973;23;20027;-70
2022/09/09 05:53:43;;;;;;;5.47;4.30;;;;;;;;;;6220163;23;20055;-70
2022/09/09 05:56:14;;;;;;;7.00;4.70;;;;;;;;;;6220059;23;20477;-70
2022/09/09 05:58:49;;;;;;;5.55;4.00;;;;;;;;;;6220303;23;20016;-70
2022/09/09 06:01:23;;;;;;;7.57;5.35;;;;;;;;;;6219773;23;20054;-70
2022/09/09 06:03:51;;;;;;;10.07;7.80;;;;;;;;;;6219955;23;20039;-70
2022/09/09 06:06:25;;;;;;;6.30;3.85;;;;;;;;;;6219456;23;20414;-69
2022/09/09 06:08:57;;;;;;;6.15;4.35;;;;;;;;;;6219879;23;20075;-70
2022/09/09 06:11:31;;;;;;;9.15;4.32;;;;;;;;;;6219424;23;20063;-69
2022/09/09 06:14:00;;;;;;;5.82;3.83;;;;;;;;;;6218908;23;20040;-70
2022/09/09 06:16:31;;;;;;;7.93;3.95;;;;;;;;;;6219507;23;20100;-70
2022/09/09 06:18:59;;;;;;;7.85;4.43;;;;;;;;;;6219792;23;20101;-69
2022/09/09 06:21:30;;;;;;;5.35;3.45;;;;;;;;;;6219755;23;20024;-69
2022/09/09 06:23:59;;;;;;;8.10;5.40;;;;;;;;;;6219699;23;20055;-69
2022/09/09 06:26:30;;;;;;;11.98;5.43;;;;;;;;;;6219634;23;20391;-69
2022/09/09 06:28:58;;;;;;;8.32;4.70;;;;;;;;;;6219743;23;20038;-69
2022/09/09 06:31:29;;;;;;;9.40;3.90;;;;;;;;;;6219609;23;20481;-70
2022/09/09 06:34:01;;;;;;;;;;;;;;;;;;6220019;23;20370;-69
2022/09/09 06:36:31;;;;;;;7.22;4.03;;;;;;;;;;6219422;23;20344;-70
2022/09/09 06:38:58;;;;;;;7.60;4.55;;;;;;;;;;6219344;23;20020;-70
2022/09/09 06:41:27;;;;;;;13.02;4.95;;;;;;;;;;6219582;23;20111;-70
2022/09/09 06:43:57;;;;;;;6.10;4.40;;;;;;;;;;6219423;23;20481;-70
2022/09/09 06:46:35;;;;;;;8.88;4.28;;;;;;;;;;6219517;23;20016;-70
2022/09/09 06:49:03;;;;;;;9.02;4.72;;;;;;;;;;6219363;23;20035;-70
2022/09/09 06:51:31;;;;;;;7.80;4.70;;;;;;;;;;6219333;23;20051;-70
2022/09/09 06:54:00;;;;;;;10.65;4.97;;;;;;;;;;6219400;23;20062;-70
2022/09/09 06:56:28;;;;;;;6.47;3.78;;;;;;;;;;6219188;23;20020;-69
2022/09/09 06:58:59;;;;;;;11.00;5.43;;;;;;;;;;6219348;23;20020;-70
2022/09/09 07:01:30;;;;;;;8.85;4.18;;;;;;;;;;6219309;23;20048;-70
2022/09/09 07:04:01;;;;;;;9.65;5.47;;;;;;;;;;6219022;23;20090;-70
2022/09/09 07:06:34;;;;;;;7.90;4.05;;;;;;;;;;6218935;23;20024;-70
2022/09/09 07:09:04;;;;;;;7.32;4.32;;;;;;;;;;6219077;23;20024;-70
2022/09/09 07:11:33;;;;;;;7.68;4.45;;;;;;;;;;6246016;23;20016;-70
2022/09/09 07:14:01;;;;;;;9.98;5.00;;;;;;;;;;6219296;23;20020;-70
2022/09/09 07:16:31;;;;;;;9.88;5.32;;;;;;;;;;6218932;23;20023;-70
2022/09/09 07:19:00;;;;;;;8.00;4.88;;;;;;;;;;6218890;23;20050;-70
2022/09/09 07:21:29;;;;;;;10.80;7.95;;;;;;;;;;6245936;23;20074;-70
2022/09/09 07:23:57;;;;;;;9.00;5.30;;;;;;;;;;6218999;23;20032;-70
2022/09/09 07:26:26;;;;;;;14.88;5.80;;;;;;;;;;6218758;23;20477;-70
2022/09/09 07:28:55;;;;;;;9.82;7.18;;;;;;;;;;6219033;23;20020;-70
2022/09/09 07:31:29;;;;;;;9.27;4.80;;;;;;;;;;6219216;23;20371;-71
2022/09/09 07:33:58;;;;;;;25.75;10.02;;;;;;;;;;6218624;23;20020;-70
2022/09/09 07:36:27;;;;;;;8.07;5.30;;;;;;;;;;6218645;23;20067;-70
2022/09/09 07:39:02;;;;;;;9.25;5.97;;;;;;;;;;6218922;23;20026;-70
2022/09/09 07:41:34;;;;;;;9.70;5.28;;;;;;;;;;6218666;23;20020;-71
2022/09/09 07:44:06;;;;;;;12.10;4.95;;;;;;;;;;6218373;23;20103;-70
2022/09/09 07:46:36;;;;;;;8.02;5.18;;;;;;;;;;6193399;23;20028;-71
2022/09/09 07:49:03;;;;;;;12.55;5.72;;;;;;;;;;6218419;23;20104;-70
2022/09/09 07:51:35;;;;;;;12.65;4.95;;;;;;;;;;6218434;23;20044;-70
2022/09/09 07:54:04;;;;;;;9.98;7.20;;;;;;;;;;6218715;23;20023;-70
2022/09/09 07:56:33;;;;;;;11.05;5.70;;;;;;;;;;6218419;23;20312;-71
2022/09/09 07:59:01;;;;;;;11.70;4.97;;;;;;;;;;6218676;23;20024;-70
2022/09/09 08:01:56;;;;;;;11.70;5.70;;;;;;;;;;6218654;23;20024;-69
2022/09/09 08:04:28;;;;;;;13.60;5.82;;;;;;;;;;6217035;23;20024;-69
2022/09/09 08:06:57;;;;;;;10.15;5.93;;;;;;;;;;6218124;23;20122;-69
2022/09/09 08:09:28;;;;;;;11.77;7.82;;;;;;;;;;6218400;23;20024;-70
2022/09/09 08:12:06;;;;;;;10.13;6.22;;;;;;;;;;6218232;23;20035;-70
2022/09/09 08:14:34;;;;;;;13.18;6.85;;;;;;;;;;6218372;23;20020;-70
2022/09/09 08:17:02;;;;;;;12.07;5.60;;;;;;;;;;6218070;23;20024;-70
2022/09/09 08:19:33;;;;;;;7.68;4.82;;;;;;;;;;6217905;23;20099;-70
2022/09/09 08:22:03;;;;;;;9.48;4.80;;;;;;;;;;6218239;23;20031;-71
2022/09/09 08:24:33;;;;;;;9.80;6.60;;;;;;;;;;6218594;23;20434;-73
2022/09/09 08:27:01;;;;;;;10.95;6.32;;;;;;;;;;6193810;23;20099;-75
2022/09/09 08:29:29;;;;;;;6.13;4.97;;;;;;;;;;6218477;23;20020;-70
2022/09/09 08:31:58;;;;;;;8.00;5.10;;;;;;;;;;6218448;23;20023;-70
2022/09/09 08:34:27;;;;;;;8.70;4.93;;;;;;;;;;6218251;23;20031;-70
2022/09/09 08:36:57;;;;;;;17.02;11.52;;;;;;;;;;6217982;23;20024;-70
2022/09/09 08:39:32;;;;;;;7.07;4.40;;;;;;;;;;6218369;23;20062;-70
2022/09/09 08:42:00;;;;;;;9.90;5.68;;;;;;;;;;6217773;23;20024;-69
2022/09/09 08:44:30;;;;;;;9.63;5.20;;;;;;;;;;6217829;23;20020;-69
2022/09/09 08:47:01;;;;;;;11.40;7.25;;;;;;;;;;6217888;23;20050;-69
2022/09/09 08:49:38;;;;;;;9.98;7.18;;;;;;;;;;6217551;23;20024;-68
2022/09/09 08:52:15;;;;;;;15.52;8.85;;;;;;;;;;6216136;23;20024;-70
2022/09/09 08:54:43;;;;;;;10.95;6.13;;;;;;;;;;6217142;23;20024;-68
2022/09/09 08:57:26;;;;;;;9.63;5.00;;;;;;;;;;6216724;23;20024;-70
2022/09/09 08:59:56;;;;;;;6.22;4.30;;;;;;;;;;6217837;23;20111;-69
2022/09/09 09:02:27;;;;;;;7.68;4.60;;;;;;;;;;6217970;23;20354;-72
2022/09/09 09:05:06;;;;;;;9.68;6.03;;;;;;;;;;6217822;23;20024;-69
2022/09/09 09:07:48;;;;;;;8.95;6.80;;;;;;;;;;6193298;23;20055;-69
2022/09/09 09:10:30;;;;;;;5.95;4.55;;;;;;;;;;6217968;23;20048;-70
2022/09/09 09:13:13;;;;;;;7.53;5.20;;;;;;;;;;6218016;23;20020;-69
2022/09/09 09:15:42;;;;;;;7.13;4.93;;;;;;;;;;6218149;23;20016;-69
2022/09/09 09:18:12;;;;;;;11.20;4.88;;;;;;;;;;6217432;23;20020;-69
2022/09/09 09:21:01;;;;;;;7.07;5.53;;;;;;;;;;6217967;23;20051;-69
2022/09/09 09:23:35;;;;;;;13.35;6.28;;;;;;;;;;6217973;23;20020;-69
2022/09/09 09:26:08;;;;;;;16.77;7.20;;;;;;;;;;6218024;23;20023;-69
2022/09/09 09:28:37;;;;;;;11.20;7.60;;;;;;;;;;6218003;23;20054;-69
2022/09/09 09:31:13;;;;;;;16.92;9.45;;;;;;;;;;6217867;23;20465;-69
2022/09/09 09:33:46;;;;;;;11.13;5.40;;;;;;;;;;6217760;23;20103;-69
2022/09/09 09:36:17;;;;;;;9.30;6.63;;;;;;;;;;6217699;23;20020;-69
2022/09/09 09:38:57;;;;;;;12.70;6.45;;;;;;;;;;6193713;23;20055;-69
2022/09/09 09:41:46;;;;;;;28.50;25.33;;;;;;;;;;6217510;23;20016;-69
2022/09/09 09:44:41;;;;;;;11.25;8.25;;;;;;;;;;6217867;23;20458;-69
2022/09/09 09:47:14;;;;;;;18.50;10.65;;;;;;;;;;6219334;23;20012;-69
2022/09/09 09:49:55;;;;;;;33.13;26.52;;;;;;;;;;6219737;23;20050;-70
2022/09/09 09:52:25;;;;;;;20.13;12.38;;;;;;;;;;6219774;23;20024;-70
2022/09/09 09:54:53;;;;;;;12.02;6.07;;;;;;;;;;6219698;23;20020;-69
2022/09/09 09:57:25;;;;;;;21.90;15.05;;;;;;;;;;6219593;23;20020;-70
2022/09/09 10:00:03;;;;;;;18.63;12.00;;;;;;;;;;6219716;23;20016;-69
2022/09/09 10:02:43;;;;;;;12.75;6.65;;;;;;;;;;6222414;23;20027;-70
2022/09/09 10:05:21;;;;;;;20.98;17.92;;;;;;;;;;6219356;23;20074;-69
2022/09/09 10:08:16;;;;;;;18.05;9.07;;;;;;;;;;6219621;23;20040;-69
2022/09/09 10:11:10;;;;;;;21.75;10.90;;;;;;;;;;6246364;23;20471;-70
2022/09/09 10:13:37;;;;;;;51.58;36.15;;;;;;;;;;6175426;23;20047;-70
2022/09/09 10:16:21;;;;;;;21.80;13.77;;;;;;;;;;6246570;23;20023;-69
2022/09/09 10:19:01;;;;;;;13.05;7.93;;;;;;;;;;6246443;23;20058;-70
2022/09/09 10:21:37;;;;;;;8.85;5.35;;;;;;;;;;6246469;23;20032;-70
2022/09/09 10:24:23;;;;;;;8.27;5.70;;;;;;;;;;6246479;23;20015;-70
2022/09/09 10:27:12;;;;;;;11.73;6.30;;;;;;;;;;6246194;23;20016;-70
2022/09/09 10:29:43;;;;;;;20.27;14.63;;;;;;;;;;6246166;23;20087;-70
2022/09/09 10:32:14;;;;;;;14.38;10.52;;;;;;;;;;6246093;23;20040;-70
2022/09/09 10:34:44;;;;;;;14.18;7.60;;;;;;;;;;6246141;23;20016;-70
2022/09/09 10:37:23;;;;;;;6.97;5.13;;;;;;;;;;6219313;23;20446;-70
2022/09/09 10:39:58;;;;;;;14.77;9.93;;;;;;;;;;6246231;23;20083;-70
2022/09/09 10:42:29;;;;;;;14.15;9.02;;;;;;;;;;6246247;23;20061;-69
2022/09/09 10:44:57;;;;;;;26.77;19.38;;;;;;;;;;6246145;23;20016;-70
2022/09/09 10:47:28;;;;;;;13.48;8.13;;;;;;;;;;6246485;23;20316;-69
2022/09/09 10:50:12;;;;;;;9.63;5.93;;;;;;;;;;6246004;23;20020;-71
2022/09/09 10:52:43;;;;;;;8.85;6.32;;;;;;;;;;6246080;23;20020;-70
2022/09/09 10:55:10;;;;;;;16.88;9.20;;;;;;;;;;6246241;23;20013;-76
2022/09/09 10:57:41;;;;;;;10.40;5.80;;;;;;;;;;6245675;23;20051;-70
2022/09/09 11:00:24;;;;;;;9.15;5.20;;;;;;;;;;6245743;23;20016;-69
2022/09/09 11:02:55;;;;;;;8.48;5.53;;;;;;;;;;6245960;23;20338;-69
2022/09/09 11:05:36;;;;;;;10.85;7.28;;;;;;;;;;6245673;23;20070;-70
2022/09/09 11:08:16;;;;;;;10.48;5.38;;;;;;;;;;6218941;23;20020;-70
2022/09/09 11:11:03;;;;;;;7.10;4.78;;;;;;;;;;6245899;23;20016;-69
2022/09/09 11:13:40;;;;;;;15.88;9.13;;;;;;;;;;6246045;23;20023;-70
2022/09/09 11:16:23;;;;;;;6.97;5.07;;;;;;;;;;6245952;23;20022;-70
2022/09/09 11:18:51;;;;;;;12.48;7.00;;;;;;;;;;6245476;23;20012;-69
2022/09/09 11:21:29;;;;;;;30.17;14.18;;;;;;;;;;6245595;23;20040;-70
2022/09/09 11:24:00;;;;;;;9.23;5.85;;;;;;;;;;6245812;23;20012;-70
2022/09/09 11:26:44;;;;;;;9.35;4.72;;;;;;;;;;6245752;23;20070;-70
2022/09/09 11:29:13;;;;;;;5.43;4.60;;;;;;;;;;6245715;23;20027;-69
2022/09/09 11:31:55;;;;;;;16.58;6.80;;;;;;;;;;6245538;23;20066;-69
2022/09/09 11:34:35;;;;;;;37.72;11.82;;;;;;;;;;6219424;23;20019;-69
2022/09/09 11:37:07;;;;;;;8.93;5.10;;;;;;;;;;6245199;23;20020;-69
2022/09/09 11:39:35;;;;;;;19.80;6.20;;;;;;;;;;6245489;23;20092;-70
2022/09/09 11:42:14;;;;;;;12.50;5.82;;;;;;;;;;6245474;23;20016;-70
2022/09/09 11:44:42;;;;;;;10.18;5.22;;;;;;;;;;6245694;23;20020;-69
2022/09/09 11:47:30;;;;;;;7.53;5.45;;;;;;;;;;6245662;23;20031;-68
2022/09/09 11:50:15;;;;;;;17.02;5.50;;;;;;;;;;6245575;23;20027;-68
2022/09/09 11:52:47;;;;;;;14.73;6.18;;;;;;;;;;6245507;23;20081;-68
2022/09/09 11:55:27;;;;;;;8.05;5.40;;;;;;;;;;6219024;23;20516;-69
2022/09/09 11:57:59;;;;;;;16.58;7.82;;;;;;;;;;6245234;23;20020;-69
2022/09/09 12:00:37;;;;;;;13.50;5.57;;;;;;;;;;6245387;23;20343;-69
2022/09/09 12:03:06;;;;;;;10.55;6.00;;;;;;;;;;6245396;23;20035;-70
2022/09/09 12:05:52;;;;;;;11.00;5.30;;;;;;;;;;6245288;23;20012;-69
2022/09/09 12:08:25;;;;;;;13.23;5.95;;;;;;;;;;6245326;23;20016;-69
2022/09/09 12:10:55;;;;;;;22.33;8.15;;;;;;;;;;6245101;23;20016;-69
2022/09/09 12:13:27;;;;;;;20.50;7.80;;;;;;;;;;6219147;23;20020;-68
2022/09/09 12:15:56;;;;;;;17.75;7.75;;;;;;;;;;6244148;23;20012;-69
2022/09/09 12:18:33;;;;;;;15.70;6.00;;;;;;;;;;6245175;23;20038;-71
2022/09/09 12:21:04;;;;;;;14.60;7.75;;;;;;;;;;6216861;23;20469;-70
2022/09/09 12:23:36;;;;;;;12.00;5.82;;;;;;;;;;6245296;23;20023;-69
2022/09/09 12:26:03;;;;;;;11.82;6.47;;;;;;;;;;6242991;23;20016;-70
2022/09/09 12:28:31;;;;;;;14.80;6.32;;;;;;;;;;6244612;23;20020;-69
2022/09/09 12:31:02;;;;;;;13.30;7.45;;;;;;;;;;6242670;23;20035;-70
2022/09/09 12:33:37;;;;;;;16.70;10.27;;;;;;;;;;6243643;23;20023;-70
2022/09/09 12:36:06;;;;;;;8.73;5.78;;;;;;;;;;6243796;23;20016;-69
2022/09/09 12:38:38;;;;;;;13.07;7.43;;;;;;;;;;6216830;23;20382;-70
2022/09/09 12:41:06;;;;;;;17.13;9.43;;;;;;;;;;6244847;23;20012;-69
2022/09/09 12:43:34;;;;;;;17.92;12.38;;;;;;;;;;6244402;23;20024;-69
2022/09/09 12:46:04;;;;;;;13.48;9.65;;;;;;;;;;6245016;23;20047;-70
2022/09/09 12:48:36;;;;;;;15.77;9.07;;;;;;;;;;6244980;23;20020;-69
2022/09/09 12:51:05;;;;;;;13.75;9.40;;;;;;;;;;6245173;23;20019;-70
2022/09/09 12:53:34;;;;;;;15.70;6.93;;;;;;;;;;6245401;23;20414;-70
2022/09/09 12:56:07;;;;;;;9.57;6.68;;;;;;;;;;6245088;23;20450;-70
2022/09/09 12:58:36;;;;;;;15.07;10.32;;;;;;;;;;6244906;23;20020;-71
2022/09/09 13:01:05;;;;;;;21.10;9.10;;;;;;;;;;6245295;23;20020;-70
2022/09/09 13:03:33;;;;;;;10.57;7.00;;;;;;;;;;6244935;23;20426;-70
2022/09/09 13:06:18;;;;;;;26.55;9.68;;;;;;;;;;6244555;23;20091;-70
2022/09/09 13:08:45;;;;;;;;;;;;;;;;;;6245446;23;20024;-69
2022/09/09 13:11:18;;;;;;;14.82;5.88;;;;;;;;;;6245242;23;19921;-69
2022/09/09 13:13:51;;;;;;;29.42;8.73;;;;;;;;;;6245105;23;20012;-70
2022/09/09 13:16:23;;;;;;;16.63;6.10;;;;;;;;;;6244735;23;20027;-70
2022/09/09 13:18:51;;;;;;;28.90;7.90;;;;;;;;;;6244610;23;20020;-69
2022/09/09 13:21:19;;;;;;;20.23;6.55;;;;;;;;;;6243687;23;20508;-70
2022/09/09 13:23:51;;;;;;;25.70;8.65;;;;;;;;;;6245641;23;20024;-70
2022/09/09 13:26:26;;;;;;;35.05;8.70;;;;;;;;;;6246541;23;20439;-70
2022/09/09 13:28:54;;;;;;;16.10;6.22;;;;;;;;;;6246496;23;20020;-69
2022/09/09 13:31:24;;;;;;;22.45;7.43;;;;;;;;;;6246468;23;20335;-68
2022/09/09 13:33:52;;;;;;;15.68;6.63;;;;;;;;;;6246587;23;20024;-69
2022/09/09 13:36:29;;;;;;;11.57;6.18;;;;;;;;;;6246441;23;20016;-69
2022/09/09 13:38:59;;;;;;;13.40;5.93;;;;;;;;;;6246465;23;20039;-69
2022/09/09 13:41:30;;;;;;;21.33;6.97;;;;;;;;;;6245612;23;20016;-69
2022/09/09 13:43:58;;;;;;;18.20;6.47;;;;;;;;;;6245880;23;20016;-69
2022/09/09 13:46:29;;;;;;;11.90;6.47;;;;;;;;;;6246378;23;20019;-69
2022/09/09 13:48:58;;;;;;;18.90;6.22;;;;;;;;;;6246425;23;20020;-71
2022/09/09 13:51:31;;;;;;;16.92;6.43;;;;;;;;;;6246308;23;20012;-70
2022/09/09 13:54:00;;;;;;;10.48;6.68;;;;;;;;;;6246795;23;20265;-70
2022/09/09 13:56:31;;;;;;;15.13;7.22;;;;;;;;;;6246222;23;20087;-73
2022/09/09 13:58:59;;;;;;;15.77;6.60;;;;;;;;;;6219634;23;20020;-71
2022/09/09 14:01:27;;;;;;;14.68;7.35;;;;;;;;;;6246866;23;20374;-71
2022/09/09 14:03:56;;;;;;;15.82;8.02;;;;;;;;;;6246500;23;20458;-71
2022/09/09 14:06:24;;;;;;;13.75;6.70;;;;;;;;;;6218962;23;20331;-70
2022/09/09 14:08:52;;;;;;;11.07;6.05;;;;;;;;;;6219137;23;20342;-70
2022/09/09 14:11:21;;;;;;;12.80;6.78;;;;;;;;;;6245946;23;20023;-70
2022/09/09 14:13:51;;;;;;;15.05;6.15;;;;;;;;;;6246132;23;20020;-70
2022/09/09 14:16:21;;;;;;;13.32;6.53;;;;;;;;;;6245780;23;20012;-70
2022/09/09 14:18:48;;;;;;;14.63;7.90;;;;;;;;;;6245728;23;20350;-69
2022/09/09 14:21:16;;;;;;;15.02;7.80;;;;;;;;;;6245983;23;20012;-70
2022/09/09 14:23:43;;;;;;;22.25;11.00;;;;;;;;;;6245642;23;20019;-71
2022/09/09 14:26:11;;;;;;;12.85;7.28;;;;;;;;;;6245757;23;20087;-70
2022/09/09 14:28:40;;;;;;;17.38;8.05;;;;;;;;;;6245434;23;20439;-70
2022/09/09 14:31:23;;;;;;;12.93;6.13;;;;;;;;;;6245805;23;20079;-71
2022/09/09 14:33:51;;;;;;;19.65;10.07;;;;;;;;;;6245285;23;20016;-71
2022/09/09 14:36:19;;;;;;;14.93;6.65;;;;;;;;;;6245388;23;20012;-71
2022/09/09 14:38:46;;;;;;;12.55;9.00;;;;;;;;;;6245791;23;20039;-70
2022/09/09 14:41:18;;;;;;;14.32;7.13;;;;;;;;;;6245522;23;20458;-71
2022/09/09 14:43:46;;;;;;;12.73;7.00;;;;;;;;;;6245855;23;20012;-71
2022/09/09 14:46:14;;;;;;;13.55;7.20;;;;;;;;;;6245908;23;20074;-71
2022/09/09 14:48:43;;;;;;;15.75;7.60;;;;;;;;;;6245627;23;20023;-71
2022/09/09 14:51:13;;;;;;;13.73;8.18;;;;;;;;;;6245844;23;20099;-71
2022/09/09 14:53:41;;;;;;;14.02;8.05;;;;;;;;;;6245996;23;20016;-71
2022/09/09 14:56:10;;;;;;;12.13;8.18;;;;;;;;;;6245744;23;20023;-71
2022/09/09 14:58:38;;;;;;;20.10;10.13;;;;;;;;;;6245661;23;20034;-71
2022/09/09 15:01:06;;;;;;;16.08;7.78;;;;;;;;;;6245732;23;20016;-71
2022/09/09 15:03:34;;;;;;;15.73;7.43;;;;;;;;;;6246087;23;20401;-71
2022/09/09 15:06:06;;;;;;;15.32;7.88;;;;;;;;;;6245337;23;20020;-72